sensor_id;sensor_type;location;lat;lon;timestamp;P1;durP1;ratioP1;P2;durP2;ratioP2
34890;SDS011;21103;51.358;12.412;2022-07-30T00:00:55;5.35;;;3.50;;
34890;SDS011;21103;51.358;12.412;2022-07-30T00:03:21;5.53;;;3.30;;
34890;SDS011;21103;51.358;12.412;2022-07-30T00:05:46;4.53;;;3.60;;
34890;SDS011;21103;51.358;12.412;2022-07-30T00:08:12;4.75;;;3.05;;
34890;SDS011;21103;51.358;12.412;2022-07-30T00:10:38;6.25;;;3.05;;
34890;SDS011;21103;51.358;12.412;2022-07-30T00:13:04;6.88;;;3.90;;
34890;SDS011;21103;51.358;12.412;2022-07-30T00:15:30;6.38;;;3.60;;
34890;SDS011;21103;51.358;12.412;2022-07-30T00:17:55;3.67;;;3.10;;
34890;SDS011;21103;51.358;12.412;2022-07-30T00:20:21;6.00;;;3.55;;
34890;SDS011;21103;51.358;12.412;2022-07-30T00:22:47;5.65;;;3.55;;
34890;SDS011;21103;51.358;12.412;2022-07-30T00:25:12;4.15;;;3.70;;
34890;SDS011;21103;51.358;12.412;2022-07-30T00:27:38;4.68;;;3.80;;
34890;SDS011;21103;51.358;12.412;2022-07-30T00:30:04;7.65;;;4.00;;
34890;SDS011;21103;51.358;12.412;2022-07-30T00:32:31;11.65;;;3.97;;
34890;SDS011;21103;51.358;12.412;2022-07-30T00:34:56;4.65;;;4.18;;
34890;SDS011;21103;51.358;12.412;2022-07-30T00:37:22;6.32;;;4.78;;
34890;SDS011;21103;51.358;12.412;2022-07-30T00:39:47;6.93;;;4.80;;
34890;SDS011;21103;51.358;12.412;2022-07-30T00:42:13;7.78;;;5.13;;
34890;SDS011;21103;51.358;12.412;2022-07-30T00:44:38;7.20;;;4.97;;
34890;SDS011;21103;51.358;12.412;2022-07-30T00:47:05;6.75;;;5.07;;
34890;SDS011;21103;51.358;12.412;2022-07-30T00:49:30;10.65;;;5.60;;
34890;SDS011;21103;51.358;12.412;2022-07-30T00:51:56;11.07;;;5.55;;
34890;SDS011;21103;51.358;12.412;2022-07-30T00:54:21;6.70;;;5.07;;
34890;SDS011;21103;51.358;12.412;2022-07-30T00:56:47;6.78;;;4.70;;
34890;SDS011;21103;51.358;12.412;2022-07-30T00:59:13;7.72;;;4.88;;
34890;SDS011;21103;51.358;12.412;2022-07-30T01:01:38;7.60;;;5.47;;
34890;SDS011;21103;51.358;12.412;2022-07-30T01:04:04;6.85;;;5.07;;
34890;SDS011;21103;51.358;12.412;2022-07-30T01:06:35;8.40;;;5.18;;
34890;SDS011;21103;51.358;12.412;2022-07-30T01:09:01;7.93;;;5.25;;
34890;SDS011;21103;51.358;12.412;2022-07-30T01:11:27;7.03;;;5.57;;
34890;SDS011;21103;51.358;12.412;2022-07-30T01:13:59;6.18;;;5.30;;
34890;SDS011;21103;51.358;12.412;2022-07-30T01:16:25;10.13;;;5.15;;
34890;SDS011;21103;51.358;12.412;2022-07-30T01:18:50;7.47;;;5.50;;
34890;SDS011;21103;51.358;12.412;2022-07-30T01:22:05;6.18;;;4.95;;
34890;SDS011;21103;51.358;12.412;2022-07-30T01:24:44;8.02;;;5.72;;
34890;SDS011;21103;51.358;12.412;2022-07-30T01:27:19;6.38;;;5.47;;
34890;SDS011;21103;51.358;12.412;2022-07-30T01:29:46;8.48;;;5.28;;
34890;SDS011;21103;51.358;12.412;2022-07-30T01:32:14;7.22;;;5.40;;
34890;SDS011;21103;51.358;12.412;2022-07-30T01:34:43;7.38;;;5.15;;
34890;SDS011;21103;51.358;12.412;2022-07-30T01:37:10;8.25;;;5.20;;
34890;SDS011;21103;51.358;12.412;2022-07-30T01:39:37;5.97;;;5.38;;
34890;SDS011;21103;51.358;12.412;2022-07-30T01:42:03;10.68;;;5.80;;
34890;SDS011;21103;51.358;12.412;2022-07-30T01:44:32;8.82;;;5.47;;
34890;SDS011;21103;51.358;12.412;2022-07-30T01:46:58;9.20;;;5.95;;
34890;SDS011;21103;51.358;12.412;2022-07-30T01:49:25;5.55;;;5.05;;
34890;SDS011;21103;51.358;12.412;2022-07-30T01:51:53;8.20;;;6.25;;
34890;SDS011;21103;51.358;12.412;2022-07-30T01:54:19;8.73;;;6.18;;
34890;SDS011;21103;51.358;12.412;2022-07-30T01:56:48;6.55;;;4.70;;
34890;SDS011;21103;51.358;12.412;2022-07-30T01:59:17;7.18;;;5.53;;
34890;SDS011;21103;51.358;12.412;2022-07-30T02:01:44;9.45;;;6.25;;
34890;SDS011;21103;51.358;12.412;2022-07-30T02:04:10;7.03;;;5.85;;
34890;SDS011;21103;51.358;12.412;2022-07-30T02:06:40;6.68;;;5.10;;
34890;SDS011;21103;51.358;12.412;2022-07-30T02:09:09;9.88;;;6.47;;
34890;SDS011;21103;51.358;12.412;2022-07-30T02:11:40;6.45;;;5.72;;
34890;SDS011;21103;51.358;12.412;2022-07-30T02:14:33;7.03;;;4.47;;
34890;SDS011;21103;51.358;12.412;2022-07-30T02:17:05;7.95;;;5.85;;
34890;SDS011;21103;51.358;12.412;2022-07-30T02:19:35;6.78;;;5.60;;
34890;SDS011;21103;51.358;12.412;2022-07-30T02:22:07;6.53;;;5.80;;
34890;SDS011;21103;51.358;12.412;2022-07-30T02:24:36;8.25;;;6.35;;
34890;SDS011;21103;51.358;12.412;2022-07-30T02:27:05;7.70;;;6.13;;
34890;SDS011;21103;51.358;12.412;2022-07-30T02:29:36;6.50;;;5.68;;
34890;SDS011;21103;51.358;12.412;2022-07-30T02:32:07;8.65;;;6.55;;
34890;SDS011;21103;51.358;12.412;2022-07-30T02:34:35;6.90;;;6.15;;
34890;SDS011;21103;51.358;12.412;2022-07-30T02:37:03;6.20;;;5.53;;
34890;SDS011;21103;51.358;12.412;2022-07-30T02:39:30;6.53;;;5.55;;
34890;SDS011;21103;51.358;12.412;2022-07-30T02:41:57;6.15;;;5.55;;
34890;SDS011;21103;51.358;12.412;2022-07-30T02:44:24;7.38;;;5.35;;
34890;SDS011;21103;51.358;12.412;2022-07-30T02:46:53;6.85;;;6.15;;
34890;SDS011;21103;51.358;12.412;2022-07-30T02:49:20;9.27;;;6.70;;
34890;SDS011;21103;51.358;12.412;2022-07-30T02:51:47;10.50;;;5.75;;
34890;SDS011;21103;51.358;12.412;2022-07-30T02:54:14;9.82;;;6.88;;
34890;SDS011;21103;51.358;12.412;2022-07-30T02:56:42;6.80;;;6.10;;
34890;SDS011;21103;51.358;12.412;2022-07-30T02:59:10;9.30;;;6.63;;
34890;SDS011;21103;51.358;12.412;2022-07-30T03:01:36;9.02;;;7.30;;
34890;SDS011;21103;51.358;12.412;2022-07-30T03:04:02;7.95;;;6.53;;
34890;SDS011;21103;51.358;12.412;2022-07-30T03:06:29;8.43;;;7.03;;
34890;SDS011;21103;51.358;12.412;2022-07-30T03:08:55;7.50;;;5.88;;
34890;SDS011;21103;51.358;12.412;2022-07-30T03:11:23;8.57;;;6.28;;
34890;SDS011;21103;51.358;12.412;2022-07-30T03:13:50;10.40;;;6.32;;
34890;SDS011;21103;51.358;12.412;2022-07-30T03:16:16;7.40;;;6.07;;
34890;SDS011;21103;51.358;12.412;2022-07-30T03:18:45;10.98;;;6.75;;
34890;SDS011;21103;51.358;12.412;2022-07-30T03:21:12;7.85;;;6.40;;
34890;SDS011;21103;51.358;12.412;2022-07-30T03:23:38;9.93;;;6.20;;
34890;SDS011;21103;51.358;12.412;2022-07-30T03:26:06;7.35;;;6.63;;
34890;SDS011;21103;51.358;12.412;2022-07-30T03:28:35;10.80;;;6.50;;
34890;SDS011;21103;51.358;12.412;2022-07-30T03:31:02;8.18;;;6.63;;
34890;SDS011;21103;51.358;12.412;2022-07-30T03:33:29;8.85;;;6.32;;
34890;SDS011;21103;51.358;12.412;2022-07-30T03:35:56;7.72;;;6.47;;
34890;SDS011;21103;51.358;12.412;2022-07-30T03:38:22;9.82;;;6.47;;
34890;SDS011;21103;51.358;12.412;2022-07-30T03:40:49;8.05;;;6.70;;
34890;SDS011;21103;51.358;12.412;2022-07-30T03:43:15;10.95;;;7.40;;
34890;SDS011;21103;51.358;12.412;2022-07-30T03:45:43;9.20;;;6.47;;
34890;SDS011;21103;51.358;12.412;2022-07-30T03:48:09;9.23;;;6.82;;
34890;SDS011;21103;51.358;12.412;2022-07-30T03:50:37;9.75;;;7.03;;
34890;SDS011;21103;51.358;12.412;2022-07-30T03:53:05;8.57;;;6.32;;
34890;SDS011;21103;51.358;12.412;2022-07-30T03:55:32;11.45;;;7.03;;
34890;SDS011;21103;51.358;12.412;2022-07-30T03:57:59;9.27;;;7.25;;
34890;SDS011;21103;51.358;12.412;2022-07-30T04:00:25;12.05;;;7.75;;
34890;SDS011;21103;51.358;12.412;2022-07-30T04:02:51;9.50;;;7.18;;
34890;SDS011;21103;51.358;12.412;2022-07-30T04:05:17;9.65;;;7.30;;
34890;SDS011;21103;51.358;12.412;2022-07-30T04:07:43;8.63;;;7.03;;
34890;SDS011;21103;51.358;12.412;2022-07-30T04:10:08;7.43;;;6.72;;
34890;SDS011;21103;51.358;12.412;2022-07-30T04:12:34;11.23;;;7.32;;
34890;SDS011;21103;51.358;12.412;2022-07-30T04:14:59;8.48;;;7.45;;
34890;SDS011;21103;51.358;12.412;2022-07-30T04:17:37;7.75;;;6.93;;
34890;SDS011;21103;51.358;12.412;2022-07-30T04:20:07;8.93;;;7.38;;
34890;SDS011;21103;51.358;12.412;2022-07-30T04:22:35;9.60;;;7.88;;
34890;SDS011;21103;51.358;12.412;2022-07-30T04:25:01;10.68;;;8.18;;
34890;SDS011;21103;51.358;12.412;2022-07-30T04:27:30;9.18;;;8.27;;
34890;SDS011;21103;51.358;12.412;2022-07-30T04:29:56;9.77;;;7.78;;
34890;SDS011;21103;51.358;12.412;2022-07-30T04:32:22;8.68;;;7.88;;
34890;SDS011;21103;51.358;12.412;2022-07-30T04:34:48;9.30;;;8.18;;
34890;SDS011;21103;51.358;12.412;2022-07-30T04:37:15;9.25;;;7.43;;
34890;SDS011;21103;51.358;12.412;2022-07-30T04:39:42;9.60;;;8.23;;
34890;SDS011;21103;51.358;12.412;2022-07-30T04:42:07;10.60;;;8.70;;
34890;SDS011;21103;51.358;12.412;2022-07-30T04:44:33;11.13;;;8.55;;
34890;SDS011;21103;51.358;12.412;2022-07-30T04:46:59;11.50;;;8.57;;
34890;SDS011;21103;51.358;12.412;2022-07-30T04:49:24;11.50;;;9.18;;
34890;SDS011;21103;51.358;12.412;2022-07-30T04:51:52;10.95;;;8.25;;
34890;SDS011;21103;51.358;12.412;2022-07-30T04:54:18;14.57;;;9.20;;
34890;SDS011;21103;51.358;12.412;2022-07-30T04:56:45;12.25;;;9.52;;
34890;SDS011;21103;51.358;12.412;2022-07-30T04:59:12;13.20;;;8.40;;
34890;SDS011;21103;51.358;12.412;2022-07-30T05:01:40;9.15;;;8.25;;
34890;SDS011;21103;51.358;12.412;2022-07-30T05:04:07;12.45;;;9.05;;
34890;SDS011;21103;51.358;12.412;2022-07-30T05:06:34;8.57;;;7.75;;
34890;SDS011;21103;51.358;12.412;2022-07-30T05:09:01;11.07;;;8.10;;
34890;SDS011;21103;51.358;12.412;2022-07-30T05:11:27;8.38;;;7.05;;
34890;SDS011;21103;51.358;12.412;2022-07-30T05:13:53;7.93;;;6.57;;
34890;SDS011;21103;51.358;12.412;2022-07-30T05:16:18;11.65;;;6.68;;
34890;SDS011;21103;51.358;12.412;2022-07-30T05:18:44;9.32;;;6.65;;
34890;SDS011;21103;51.358;12.412;2022-07-30T05:21:09;8.40;;;6.40;;
34890;SDS011;21103;51.358;12.412;2022-07-30T05:23:35;7.43;;;6.50;;
34890;SDS011;21103;51.358;12.412;2022-07-30T05:26:00;7.03;;;6.32;;
34890;SDS011;21103;51.358;12.412;2022-07-30T05:28:26;7.38;;;6.13;;
34890;SDS011;21103;51.358;12.412;2022-07-30T05:30:52;8.73;;;7.82;;
34890;SDS011;21103;51.358;12.412;2022-07-30T05:33:19;8.15;;;7.10;;
34890;SDS011;21103;51.358;12.412;2022-07-30T05:35:46;9.70;;;7.45;;
34890;SDS011;21103;51.358;12.412;2022-07-30T05:38:12;9.02;;;7.68;;
34890;SDS011;21103;51.358;12.412;2022-07-30T05:40:38;7.85;;;6.93;;
34890;SDS011;21103;51.358;12.412;2022-07-30T05:43:03;8.20;;;7.22;;
34890;SDS011;21103;51.358;12.412;2022-07-30T05:45:29;9.20;;;6.50;;
34890;SDS011;21103;51.358;12.412;2022-07-30T05:47:54;7.57;;;6.28;;
34890;SDS011;21103;51.358;12.412;2022-07-30T05:50:20;9.75;;;5.93;;
34890;SDS011;21103;51.358;12.412;2022-07-30T05:52:46;8.27;;;6.47;;
34890;SDS011;21103;51.358;12.412;2022-07-30T05:55:11;7.18;;;5.82;;
34890;SDS011;21103;51.358;12.412;2022-07-30T05:57:37;6.38;;;5.63;;
34890;SDS011;21103;51.358;12.412;2022-07-30T06:00:05;6.97;;;5.93;;
34890;SDS011;21103;51.358;12.412;2022-07-30T06:02:33;5.82;;;5.22;;
34890;SDS011;21103;51.358;12.412;2022-07-30T06:04:59;7.10;;;5.40;;
34890;SDS011;21103;51.358;12.412;2022-07-30T06:07:24;7.13;;;5.20;;
34890;SDS011;21103;51.358;12.412;2022-07-30T06:09:50;5.72;;;4.80;;
34890;SDS011;21103;51.358;12.412;2022-07-30T06:12:16;6.40;;;5.03;;
34890;SDS011;21103;51.358;12.412;2022-07-30T06:14:41;5.43;;;4.45;;
34890;SDS011;21103;51.358;12.412;2022-07-30T06:17:07;5.68;;;5.00;;
34890;SDS011;21103;51.358;12.412;2022-07-30T06:19:32;6.00;;;5.10;;
34890;SDS011;21103;51.358;12.412;2022-07-30T06:21:58;5.60;;;4.60;;
34890;SDS011;21103;51.358;12.412;2022-07-30T06:24:23;5.90;;;5.30;;
34890;SDS011;21103;51.358;12.412;2022-07-30T06:26:49;6.82;;;5.20;;
34890;SDS011;21103;51.358;12.412;2022-07-30T06:29:14;6.30;;;4.68;;
34890;SDS011;21103;51.358;12.412;2022-07-30T06:31:40;7.50;;;4.88;;
34890;SDS011;21103;51.358;12.412;2022-07-30T06:34:05;6.90;;;5.63;;
34890;SDS011;21103;51.358;12.412;2022-07-30T06:36:31;5.90;;;4.75;;
34890;SDS011;21103;51.358;12.412;2022-07-30T06:38:57;5.70;;;4.90;;
34890;SDS011;21103;51.358;12.412;2022-07-30T06:41:22;4.82;;;4.32;;
34890;SDS011;21103;51.358;12.412;2022-07-30T06:43:47;5.68;;;4.72;;
34890;SDS011;21103;51.358;12.412;2022-07-30T06:46:14;5.70;;;5.13;;
34890;SDS011;21103;51.358;12.412;2022-07-30T06:48:40;9.05;;;5.43;;
34890;SDS011;21103;51.358;12.412;2022-07-30T06:51:06;7.65;;;5.35;;
34890;SDS011;21103;51.358;12.412;2022-07-30T06:53:31;7.03;;;5.80;;
34890;SDS011;21103;51.358;12.412;2022-07-30T06:55:57;6.57;;;5.35;;
34890;SDS011;21103;51.358;12.412;2022-07-30T06:58:23;8.15;;;6.78;;
34890;SDS011;21103;51.358;12.412;2022-07-30T07:00:48;7.50;;;5.80;;
34890;SDS011;21103;51.358;12.412;2022-07-30T07:03:14;7.50;;;5.82;;
34890;SDS011;21103;51.358;12.412;2022-07-30T07:05:40;6.97;;;5.18;;
34890;SDS011;21103;51.358;12.412;2022-07-30T07:08:05;6.43;;;5.47;;
34890;SDS011;21103;51.358;12.412;2022-07-30T07:10:31;7.57;;;5.57;;
34890;SDS011;21103;51.358;12.412;2022-07-30T07:12:56;7.25;;;5.53;;
34890;SDS011;21103;51.358;12.412;2022-07-30T07:15:22;6.03;;;5.45;;
34890;SDS011;21103;51.358;12.412;2022-07-30T07:17:47;6.65;;;5.18;;
34890;SDS011;21103;51.358;12.412;2022-07-30T07:20:12;7.53;;;5.43;;
34890;SDS011;21103;51.358;12.412;2022-07-30T07:22:38;7.88;;;6.03;;
34890;SDS011;21103;51.358;12.412;2022-07-30T07:25:04;9.35;;;6.05;;
34890;SDS011;21103;51.358;12.412;2022-07-30T07:27:30;7.65;;;5.25;;
34890;SDS011;21103;51.358;12.412;2022-07-30T07:29:56;7.72;;;5.35;;
34890;SDS011;21103;51.358;12.412;2022-07-30T07:32:21;9.23;;;5.20;;
34890;SDS011;21103;51.358;12.412;2022-07-30T07:34:47;6.68;;;5.50;;
34890;SDS011;21103;51.358;12.412;2022-07-30T07:37:12;6.93;;;5.60;;
34890;SDS011;21103;51.358;12.412;2022-07-30T07:39:39;6.88;;;5.13;;
34890;SDS011;21103;51.358;12.412;2022-07-30T07:42:05;10.02;;;5.95;;
34890;SDS011;21103;51.358;12.412;2022-07-30T07:44:31;8.82;;;5.68;;
34890;SDS011;21103;51.358;12.412;2022-07-30T07:46:56;8.15;;;5.65;;
34890;SDS011;21103;51.358;12.412;2022-07-30T07:49:22;9.18;;;5.63;;
34890;SDS011;21103;51.358;12.412;2022-07-30T07:51:47;9.55;;;6.00;;
34890;SDS011;21103;51.358;12.412;2022-07-30T07:54:13;6.68;;;5.55;;
34890;SDS011;21103;51.358;12.412;2022-07-30T07:56:38;6.68;;;4.90;;
34890;SDS011;21103;51.358;12.412;2022-07-30T07:59:04;8.23;;;5.43;;
34890;SDS011;21103;51.358;12.412;2022-07-30T08:01:29;9.32;;;6.18;;
34890;SDS011;21103;51.358;12.412;2022-07-30T08:03:55;7.70;;;5.82;;
34890;SDS011;21103;51.358;12.412;2022-07-30T08:06:20;7.47;;;4.78;;
34890;SDS011;21103;51.358;12.412;2022-07-30T08:08:46;6.18;;;4.90;;
34890;SDS011;21103;51.358;12.412;2022-07-30T08:11:11;8.82;;;5.63;;
34890;SDS011;21103;51.358;12.412;2022-07-30T08:13:36;7.60;;;4.53;;
34890;SDS011;21103;51.358;12.412;2022-07-30T08:16:02;8.60;;;5.18;;
34890;SDS011;21103;51.358;12.412;2022-07-30T08:18:28;9.38;;;5.95;;
34890;SDS011;21103;51.358;12.412;2022-07-30T08:20:53;6.90;;;4.70;;
34890;SDS011;21103;51.358;12.412;2022-07-30T08:23:19;5.80;;;4.68;;
34890;SDS011;21103;51.358;12.412;2022-07-30T08:25:46;5.70;;;4.22;;
34890;SDS011;21103;51.358;12.412;2022-07-30T08:28:12;8.70;;;5.10;;
34890;SDS011;21103;51.358;12.412;2022-07-30T08:30:38;6.25;;;4.55;;
34890;SDS011;21103;51.358;12.412;2022-07-30T08:33:03;5.57;;;4.50;;
34890;SDS011;21103;51.358;12.412;2022-07-30T08:35:29;9.05;;;4.75;;
34890;SDS011;21103;51.358;12.412;2022-07-30T08:37:54;7.57;;;5.18;;
34890;SDS011;21103;51.358;12.412;2022-07-30T08:40:20;6.97;;;4.95;;
34890;SDS011;21103;51.358;12.412;2022-07-30T08:42:50;11.40;;;5.40;;
34890;SDS011;21103;51.358;12.412;2022-07-30T08:45:17;7.90;;;4.68;;
34890;SDS011;21103;51.358;12.412;2022-07-30T08:47:43;8.45;;;4.90;;
34890;SDS011;21103;51.358;12.412;2022-07-30T08:50:10;10.75;;;4.88;;
34890;SDS011;21103;51.358;12.412;2022-07-30T08:52:37;5.40;;;4.63;;
34890;SDS011;21103;51.358;12.412;2022-07-30T08:55:03;7.97;;;5.10;;
34890;SDS011;21103;51.358;12.412;2022-07-30T08:57:30;5.88;;;4.32;;
34890;SDS011;21103;51.358;12.412;2022-07-30T08:59:57;5.53;;;4.60;;
34890;SDS011;21103;51.358;12.412;2022-07-30T09:02:23;6.97;;;5.03;;
34890;SDS011;21103;51.358;12.412;2022-07-30T09:04:49;8.27;;;5.05;;
34890;SDS011;21103;51.358;12.412;2022-07-30T09:07:14;6.10;;;5.20;;
34890;SDS011;21103;51.358;12.412;2022-07-30T09:09:40;5.65;;;5.13;;
34890;SDS011;21103;51.358;12.412;2022-07-30T09:12:30;10.85;;;5.53;;
34890;SDS011;21103;51.358;12.412;2022-07-30T09:15:04;8.57;;;4.78;;
34890;SDS011;21103;51.358;12.412;2022-07-30T09:17:49;6.93;;;4.97;;
34890;SDS011;21103;51.358;12.412;2022-07-30T09:20:15;7.45;;;5.57;;
34890;SDS011;21103;51.358;12.412;2022-07-30T09:22:45;7.43;;;5.38;;
34890;SDS011;21103;51.358;12.412;2022-07-30T09:25:12;8.20;;;5.63;;
34890;SDS011;21103;51.358;12.412;2022-07-30T09:27:44;7.30;;;5.68;;
34890;SDS011;21103;51.358;12.412;2022-07-30T09:30:11;9.48;;;5.28;;
34890;SDS011;21103;51.358;12.412;2022-07-30T09:32:47;6.32;;;5.72;;
34890;SDS011;21103;51.358;12.412;2022-07-30T09:35:13;6.38;;;5.72;;
34890;SDS011;21103;51.358;12.412;2022-07-30T09:37:39;7.13;;;5.85;;
34890;SDS011;21103;51.358;12.412;2022-07-30T09:40:15;7.22;;;6.00;;
34890;SDS011;21103;51.358;12.412;2022-07-30T09:42:42;6.18;;;5.57;;
34890;SDS011;21103;51.358;12.412;2022-07-30T09:45:09;8.35;;;6.85;;
34890;SDS011;21103;51.358;12.412;2022-07-30T09:47:37;8.10;;;6.55;;
34890;SDS011;21103;51.358;12.412;2022-07-30T09:50:12;9.10;;;5.60;;
34890;SDS011;21103;51.358;12.412;2022-07-30T09:52:43;11.40;;;6.45;;
34890;SDS011;21103;51.358;12.412;2022-07-30T09:55:10;7.85;;;6.18;;
34890;SDS011;21103;51.358;12.412;2022-07-30T09:57:52;10.27;;;6.35;;
34890;SDS011;21103;51.358;12.412;2022-07-30T10:00:21;8.25;;;5.45;;
34890;SDS011;21103;51.358;12.412;2022-07-30T10:02:48;6.78;;;5.50;;
34890;SDS011;21103;51.358;12.412;2022-07-30T10:05:15;7.20;;;5.65;;
34890;SDS011;21103;51.358;12.412;2022-07-30T10:10:19;6.82;;;6.15;;
34890;SDS011;21103;51.358;12.412;2022-07-30T10:12:46;8.32;;;7.05;;
34890;SDS011;21103;51.358;12.412;2022-07-30T10:15:16;9.93;;;6.90;;
34890;SDS011;21103;51.358;12.412;2022-07-30T10:17:44;7.93;;;6.65;;
34890;SDS011;21103;51.358;12.412;2022-07-30T10:20:10;7.82;;;6.57;;
34890;SDS011;21103;51.358;12.412;2022-07-30T10:22:36;11.40;;;6.30;;
34890;SDS011;21103;51.358;12.412;2022-07-30T10:25:03;8.80;;;6.90;;
34890;SDS011;21103;51.358;12.412;2022-07-30T10:27:29;12.15;;;7.18;;
34890;SDS011;21103;51.358;12.412;2022-07-30T10:29:56;8.20;;;7.28;;
34890;SDS011;21103;51.358;12.412;2022-07-30T10:32:23;8.95;;;7.28;;
34890;SDS011;21103;51.358;12.412;2022-07-30T10:34:50;13.43;;;7.88;;
34890;SDS011;21103;51.358;12.412;2022-07-30T10:37:16;7.70;;;6.90;;
34890;SDS011;21103;51.358;12.412;2022-07-30T10:39:46;9.27;;;6.25;;
34890;SDS011;21103;51.358;12.412;2022-07-30T10:42:27;7.68;;;6.10;;
34890;SDS011;21103;51.358;12.412;2022-07-30T10:47:39;9.50;;;6.95;;
34890;SDS011;21103;51.358;12.412;2022-07-30T10:55:32;12.07;;;7.72;;
34890;SDS011;21103;51.358;12.412;2022-07-30T10:58:09;11.18;;;7.05;;
34890;SDS011;21103;51.358;12.412;2022-07-30T11:03:18;10.35;;;8.45;;
34890;SDS011;21103;51.358;12.412;2022-07-30T11:05:47;14.95;;;9.10;;
34890;SDS011;21103;51.358;12.412;2022-07-30T11:08:37;11.27;;;7.93;;
34890;SDS011;21103;51.358;12.412;2022-07-30T11:11:03;9.23;;;7.55;;
34890;SDS011;21103;51.358;12.412;2022-07-30T11:13:55;12.63;;;7.97;;
34890;SDS011;21103;51.358;12.412;2022-07-30T11:19:03;11.20;;;8.43;;
34890;SDS011;21103;51.358;12.412;2022-07-30T11:21:30;12.77;;;8.77;;
34890;SDS011;21103;51.358;12.412;2022-07-30T11:23:57;9.63;;;7.47;;
34890;SDS011;21103;51.358;12.412;2022-07-30T11:29:19;8.95;;;7.60;;
34890;SDS011;21103;51.358;12.412;2022-07-30T11:35:09;8.32;;;6.18;;
34890;SDS011;21103;51.358;12.412;2022-07-30T11:40:22;11.27;;;7.32;;
34890;SDS011;21103;51.358;12.412;2022-07-30T11:42:49;8.73;;;5.90;;
34890;SDS011;21103;51.358;12.412;2022-07-30T11:47:42;12.00;;;7.25;;
34890;SDS011;21103;51.358;12.412;2022-07-30T11:50:28;8.55;;;6.38;;
34890;SDS011;21103;51.358;12.412;2022-07-30T11:52:57;7.47;;;6.03;;
34890;SDS011;21103;51.358;12.412;2022-07-30T11:55:29;7.00;;;6.40;;
34890;SDS011;21103;51.358;12.412;2022-07-30T11:57:57;7.78;;;5.90;;
34890;SDS011;21103;51.358;12.412;2022-07-30T12:00:24;7.80;;;5.70;;
34890;SDS011;21103;51.358;12.412;2022-07-30T12:02:57;7.57;;;6.13;;
34890;SDS011;21103;51.358;12.412;2022-07-30T12:05:24;8.88;;;6.15;;
34890;SDS011;21103;51.358;12.412;2022-07-30T12:07:54;9.30;;;6.15;;
34890;SDS011;21103;51.358;12.412;2022-07-30T12:10:21;8.77;;;5.70;;
34890;SDS011;21103;51.358;12.412;2022-07-30T12:12:46;9.25;;;5.85;;
34890;SDS011;21103;51.358;12.412;2022-07-30T12:15:28;6.03;;;5.43;;
34890;SDS011;21103;51.358;12.412;2022-07-30T12:17:55;9.20;;;6.88;;
34890;SDS011;21103;51.358;12.412;2022-07-30T12:20:21;8.98;;;5.72;;
34890;SDS011;21103;51.358;12.412;2022-07-30T12:22:46;7.07;;;5.70;;
34890;SDS011;21103;51.358;12.412;2022-07-30T12:25:12;8.15;;;6.35;;
34890;SDS011;21103;51.358;12.412;2022-07-30T12:27:38;8.05;;;5.82;;
34890;SDS011;21103;51.358;12.412;2022-07-30T12:30:04;6.85;;;5.55;;
34890;SDS011;21103;51.358;12.412;2022-07-30T12:32:31;6.07;;;5.40;;
34890;SDS011;21103;51.358;12.412;2022-07-30T12:34:57;7.35;;;5.78;;
34890;SDS011;21103;51.358;12.412;2022-07-30T12:37:23;6.78;;;5.93;;
34890;SDS011;21103;51.358;12.412;2022-07-30T12:39:49;5.60;;;5.03;;
34890;SDS011;21103;51.358;12.412;2022-07-30T12:42:50;6.38;;;4.53;;
34890;SDS011;21103;51.358;12.412;2022-07-30T12:45:25;8.40;;;5.18;;
34890;SDS011;21103;51.358;12.412;2022-07-30T12:47:56;7.25;;;5.15;;
34890;SDS011;21103;51.358;12.412;2022-07-30T12:50:22;5.95;;;4.97;;
34890;SDS011;21103;51.358;12.412;2022-07-30T12:52:50;9.27;;;5.32;;
34890;SDS011;21103;51.358;12.412;2022-07-30T12:55:17;5.63;;;4.63;;
34890;SDS011;21103;51.358;12.412;2022-07-30T12:57:59;6.07;;;5.20;;
34890;SDS011;21103;51.358;12.412;2022-07-30T13:00:27;9.25;;;5.15;;
34890;SDS011;21103;51.358;12.412;2022-07-30T13:02:57;6.53;;;4.85;;
34890;SDS011;21103;51.358;12.412;2022-07-30T13:06:10;6.38;;;4.78;;
34890;SDS011;21103;51.358;12.412;2022-07-30T13:08:14;7.32;;;4.95;;
34890;SDS011;21103;51.358;12.412;2022-07-30T13:11:13;6.38;;;4.78;;
34890;SDS011;21103;51.358;12.412;2022-07-30T13:13:31;7.60;;;5.07;;
34890;SDS011;21103;51.358;12.412;2022-07-30T13:16:05;6.43;;;5.13;;
34890;SDS011;21103;51.358;12.412;2022-07-30T13:18:31;8.75;;;5.00;;
34890;SDS011;21103;51.358;12.412;2022-07-30T13:20:58;9.98;;;5.95;;
34890;SDS011;21103;51.358;12.412;2022-07-30T13:23:25;7.47;;;5.72;;
34890;SDS011;21103;51.358;12.412;2022-07-30T13:25:54;6.68;;;5.57;;
34890;SDS011;21103;51.358;12.412;2022-07-30T13:28:20;7.45;;;5.35;;
34890;SDS011;21103;51.358;12.412;2022-07-30T13:30:46;5.40;;;4.90;;
34890;SDS011;21103;51.358;12.412;2022-07-30T13:33:12;6.75;;;4.80;;
34890;SDS011;21103;51.358;12.412;2022-07-30T13:35:39;6.68;;;4.82;;
34890;SDS011;21103;51.358;12.412;2022-07-30T13:38:04;8.05;;;5.63;;
34890;SDS011;21103;51.358;12.412;2022-07-30T13:40:30;4.97;;;4.47;;
34890;SDS011;21103;51.358;12.412;2022-07-30T13:42:57;7.78;;;5.55;;
34890;SDS011;21103;51.358;12.412;2022-07-30T13:45:27;7.50;;;6.03;;
34890;SDS011;21103;51.358;12.412;2022-07-30T13:47:53;6.00;;;5.30;;
34890;SDS011;21103;51.358;12.412;2022-07-30T13:50:19;8.43;;;5.18;;
34890;SDS011;21103;51.358;12.412;2022-07-30T13:52:44;5.43;;;4.90;;
34890;SDS011;21103;51.358;12.412;2022-07-30T13:55:10;7.30;;;5.28;;
34890;SDS011;21103;51.358;12.412;2022-07-30T13:57:36;9.70;;;5.50;;
34890;SDS011;21103;51.358;12.412;2022-07-30T14:00:05;6.68;;;4.32;;
34890;SDS011;21103;51.358;12.412;2022-07-30T14:02:31;6.88;;;5.05;;
34890;SDS011;21103;51.358;12.412;2022-07-30T14:04:58;5.90;;;5.00;;
34890;SDS011;21103;51.358;12.412;2022-07-30T14:07:24;5.60;;;4.88;;
34890;SDS011;21103;51.358;12.412;2022-07-30T14:09:49;9.57;;;5.25;;
34890;SDS011;21103;51.358;12.412;2022-07-30T14:12:15;5.20;;;4.68;;
34890;SDS011;21103;51.358;12.412;2022-07-30T14:14:40;6.45;;;5.22;;
34890;SDS011;21103;51.358;12.412;2022-07-30T14:17:06;6.90;;;5.70;;
34890;SDS011;21103;51.358;12.412;2022-07-30T14:19:31;7.22;;;4.53;;
34890;SDS011;21103;51.358;12.412;2022-07-30T14:21:57;8.02;;;5.22;;
34890;SDS011;21103;51.358;12.412;2022-07-30T14:24:22;6.10;;;5.28;;
34890;SDS011;21103;51.358;12.412;2022-07-30T14:26:48;8.68;;;5.57;;
34890;SDS011;21103;51.358;12.412;2022-07-30T14:29:14;11.77;;;5.60;;
34890;SDS011;21103;51.358;12.412;2022-07-30T14:31:40;6.70;;;5.47;;
34890;SDS011;21103;51.358;12.412;2022-07-30T14:34:06;8.30;;;5.70;;
34890;SDS011;21103;51.358;12.412;2022-07-30T14:36:32;7.28;;;4.88;;
34890;SDS011;21103;51.358;12.412;2022-07-30T14:38:58;6.45;;;4.65;;
34890;SDS011;21103;51.358;12.412;2022-07-30T14:41:25;9.70;;;5.55;;
34890;SDS011;21103;51.358;12.412;2022-07-30T14:43:52;6.60;;;5.45;;
34890;SDS011;21103;51.358;12.412;2022-07-30T14:46:17;6.68;;;5.13;;
34890;SDS011;21103;51.358;12.412;2022-07-30T14:48:43;7.95;;;6.13;;
34890;SDS011;21103;51.358;12.412;2022-07-30T14:51:09;7.85;;;5.78;;
34890;SDS011;21103;51.358;12.412;2022-07-30T14:53:34;7.20;;;5.88;;
34890;SDS011;21103;51.358;12.412;2022-07-30T14:56:00;5.97;;;5.18;;
34890;SDS011;21103;51.358;12.412;2022-07-30T14:58:25;8.00;;;5.90;;
34890;SDS011;21103;51.358;12.412;2022-07-30T15:00:51;6.53;;;5.75;;
34890;SDS011;21103;51.358;12.412;2022-07-30T15:03:17;6.88;;;5.90;;